sensor_id;sensor_type;location;lat;lon;timestamp;temperature;humidity
19567;DHT22;9930;49.240;8.548;2024-02-26T00:00:00;11.30;62.60
19567;DHT22;9930;49.240;8.548;2024-02-26T00:02:26;11.30;62.70
19567;DHT22;9930;49.240;8.548;2024-02-26T00:04:52;11.30;62.70
19567;DHT22;9930;49.240;8.548;2024-02-26T00:07:17;11.30;62.70
19567;DHT22;9930;49.240;8.548;2024-02-26T00:09:43;11.30;62.70
19567;DHT22;9930;49.240;8.548;2024-02-26T00:12:09;11.30;63.50
19567;DHT22;9930;49.240;8.548;2024-02-26T00:14:35;11.30;62.80
19567;DHT22;9930;49.240;8.548;2024-02-26T00:17:01;11.30;62.90
19567;DHT22;9930;49.240;8.548;2024-02-26T00:19:26;11.30;62.90
19567;DHT22;9930;49.240;8.548;2024-02-26T00:21:52;11.30;62.90
19567;DHT22;9930;49.240;8.548;2024-02-26T00:24:20;11.30;62.90
19567;DHT22;9930;49.240;8.548;2024-02-26T00:26:46;11.30;63.00
19567;DHT22;9930;49.240;8.548;2024-02-26T00:29:11;11.30;63.00
19567;DHT22;9930;49.240;8.548;2024-02-26T00:31:37;11.30;63.00
19567;DHT22;9930;49.240;8.548;2024-02-26T00:34:03;11.20;62.90
19567;DHT22;9930;49.240;8.548;2024-02-26T00:36:34;11.30;63.10
19567;DHT22;9930;49.240;8.548;2024-02-26T00:38:59;11.30;63.10
19567;DHT22;9930;49.240;8.548;2024-02-26T00:41:25;11.20;63.00
19567;DHT22;9930;49.240;8.548;2024-02-26T00:43:51;11.20;63.00
19567;DHT22;9930;49.240;8.548;2024-02-26T00:46:16;11.20;63.10
19567;DHT22;9930;49.240;8.548;2024-02-26T00:48:42;11.20;63.20
19567;DHT22;9930;49.240;8.548;2024-02-26T00:51:08;11.20;63.20
19567;DHT22;9930;49.240;8.548;2024-02-26T00:53:34;11.20;63.20
19567;DHT22;9930;49.240;8.548;2024-02-26T00:56:00;11.20;63.20
19567;DHT22;9930;49.240;8.548;2024-02-26T00:58:26;11.20;63.30
19567;DHT22;9930;49.240;8.548;2024-02-26T01:00:52;11.20;63.30
19567;DHT22;9930;49.240;8.548;2024-02-26T01:03:18;11.20;63.30
19567;DHT22;9930;49.240;8.548;2024-02-26T01:05:44;11.20;63.40
19567;DHT22;9930;49.240;8.548;2024-02-26T01:08:10;11.20;63.40
19567;DHT22;9930;49.240;8.548;2024-02-26T01:10:36;11.20;63.40
19567;DHT22;9930;49.240;8.548;2024-02-26T01:13:02;11.20;63.50
19567;DHT22;9930;49.240;8.548;2024-02-26T01:15:28;11.20;63.40
19567;DHT22;9930;49.240;8.548;2024-02-26T01:17:54;11.20;63.50
19567;DHT22;9930;49.240;8.548;2024-02-26T01:20:20;11.20;63.50
19567;DHT22;9930;49.240;8.548;2024-02-26T01:22:46;11.20;63.60
19567;DHT22;9930;49.240;8.548;2024-02-26T01:25:13;11.20;63.70
19567;DHT22;9930;49.240;8.548;2024-02-26T01:27:39;11.20;63.60
19567;DHT22;9930;49.240;8.548;2024-02-26T01:30:07;11.20;63.70
19567;DHT22;9930;49.240;8.548;2024-02-26T01:32:33;11.20;63.90
19567;DHT22;9930;49.240;8.548;2024-02-26T01:34:59;11.20;64.10
19567;DHT22;9930;49.240;8.548;2024-02-26T01:37:24;11.20;64.20
19567;DHT22;9930;49.240;8.548;2024-02-26T01:39:50;11.20;64.30
19567;DHT22;9930;49.240;8.548;2024-02-26T01:42:16;11.20;64.40
19567;DHT22;9930;49.240;8.548;2024-02-26T01:44:44;11.20;64.40
19567;DHT22;9930;49.240;8.548;2024-02-26T01:47:11;11.10;64.50
19567;DHT22;9930;49.240;8.548;2024-02-26T01:49:39;11.10;64.60
19567;DHT22;9930;49.240;8.548;2024-02-26T01:52:07;11.10;64.80
19567;DHT22;9930;49.240;8.548;2024-02-26T01:54:37;11.20;65.10
19567;DHT22;9930;49.240;8.548;2024-02-26T01:57:06;11.10;65.00
19567;DHT22;9930;49.240;8.548;2024-02-26T01:59:34;11.10;65.10
19567;DHT22;9930;49.240;8.548;2024-02-26T02:02:01;11.20;65.20
19567;DHT22;9930;49.240;8.548;2024-02-26T02:04:31;11.10;65.00
19567;DHT22;9930;49.240;8.548;2024-02-26T02:06:58;11.20;65.20
19567;DHT22;9930;49.240;8.548;2024-02-26T02:09:27;11.20;65.40
19567;DHT22;9930;49.240;8.548;2024-02-26T02:11:54;11.20;65.60
19567;DHT22;9930;49.240;8.548;2024-02-26T02:14:20;11.20;65.60
19567;DHT22;9930;49.240;8.548;2024-02-26T02:16:47;11.20;65.80
19567;DHT22;9930;49.240;8.548;2024-02-26T02:19:13;11.20;65.90
19567;DHT22;9930;49.240;8.548;2024-02-26T02:21:39;11.20;65.80
19567;DHT22;9930;49.240;8.548;2024-02-26T02:24:05;11.20;66.10
19567;DHT22;9930;49.240;8.548;2024-02-26T02:26:31;11.20;66.10
19567;DHT22;9930;49.240;8.548;2024-02-26T02:28:57;11.20;66.20
19567;DHT22;9930;49.240;8.548;2024-02-26T02:31:26;11.20;66.60
19567;DHT22;9930;49.240;8.548;2024-02-26T02:33:52;11.10;67.20
19567;DHT22;9930;49.240;8.548;2024-02-26T02:36:18;11.20;66.50
19567;DHT22;9930;49.240;8.548;2024-02-26T02:38:51;11.10;66.80
19567;DHT22;9930;49.240;8.548;2024-02-26T02:41:17;11.10;67.10
19567;DHT22;9930;49.240;8.548;2024-02-26T02:43:44;11.10;66.90
19567;DHT22;9930;49.240;8.548;2024-02-26T02:46:09;11.10;67.10
19567;DHT22;9930;49.240;8.548;2024-02-26T02:48:38;11.10;67.20
19567;DHT22;9930;49.240;8.548;2024-02-26T02:51:04;11.10;67.40
19567;DHT22;9930;49.240;8.548;2024-02-26T02:53:31;11.10;67.40
19567;DHT22;9930;49.240;8.548;2024-02-26T02:55:56;11.00;67.50
19567;DHT22;9930;49.240;8.548;2024-02-26T02:58:22;11.00;67.60
19567;DHT22;9930;49.240;8.548;2024-02-26T03:00:47;11.00;67.50
19567;DHT22;9930;49.240;8.548;2024-02-26T03:03:13;11.00;67.70
19567;DHT22;9930;49.240;8.548;2024-02-26T03:05:39;11.00;68.00
19567;DHT22;9930;49.240;8.548;2024-02-26T03:08:05;11.00;68.10
19567;DHT22;9930;49.240;8.548;2024-02-26T03:10:30;11.00;68.20
19567;DHT22;9930;49.240;8.548;2024-02-26T03:12:56;11.00;68.40
19567;DHT22;9930;49.240;8.548;2024-02-26T03:15:22;11.00;68.50
19567;DHT22;9930;49.240;8.548;2024-02-26T03:17:48;11.00;68.50
19567;DHT22;9930;49.240;8.548;2024-02-26T03:20:14;11.00;68.60
19567;DHT22;9930;49.240;8.548;2024-02-26T03:22:40;11.00;68.80
19567;DHT22;9930;49.240;8.548;2024-02-26T03:25:06;11.00;68.90
19567;DHT22;9930;49.240;8.548;2024-02-26T03:27:32;11.00;69.10
19567;DHT22;9930;49.240;8.548;2024-02-26T03:29:58;10.90;69.10
19567;DHT22;9930;49.240;8.548;2024-02-26T03:32:24;11.00;69.30
19567;DHT22;9930;49.240;8.548;2024-02-26T03:34:50;10.90;69.30
19567;DHT22;9930;49.240;8.548;2024-02-26T03:37:19;10.90;69.40
19567;DHT22;9930;49.240;8.548;2024-02-26T03:39:45;10.90;69.50
19567;DHT22;9930;49.240;8.548;2024-02-26T03:42:11;10.90;69.70
19567;DHT22;9930;49.240;8.548;2024-02-26T03:44:36;10.90;69.70
19567;DHT22;9930;49.240;8.548;2024-02-26T03:47:02;10.80;69.70
19567;DHT22;9930;49.240;8.548;2024-02-26T03:49:28;10.90;69.70
19567;DHT22;9930;49.240;8.548;2024-02-26T03:51:54;10.80;69.80
19567;DHT22;9930;49.240;8.548;2024-02-26T03:54:20;10.80;69.90
19567;DHT22;9930;49.240;8.548;2024-02-26T03:56:45;10.80;70.10
19567;DHT22;9930;49.240;8.548;2024-02-26T03:59:11;10.80;70.20
19567;DHT22;9930;49.240;8.548;2024-02-26T04:01:37;10.80;70.30
19567;DHT22;9930;49.240;8.548;2024-02-26T04:04:05;10.80;70.40
19567;DHT22;9930;49.240;8.548;2024-02-26T04:06:31;10.80;70.40
19567;DHT22;9930;49.240;8.548;2024-02-26T04:08:57;10.80;70.50
19567;DHT22;9930;49.240;8.548;2024-02-26T04:11:23;10.80;70.70
19567;DHT22;9930;49.240;8.548;2024-02-26T04:13:49;10.70;70.70
19567;DHT22;9930;49.240;8.548;2024-02-26T04:16:17;10.70;70.80
19567;DHT22;9930;49.240;8.548;2024-02-26T04:18:43;10.80;70.90
19567;DHT22;9930;49.240;8.548;2024-02-26T04:21:09;10.70;70.70
19567;DHT22;9930;49.240;8.548;2024-02-26T04:23:35;10.70;70.90
19567;DHT22;9930;49.240;8.548;2024-02-26T04:26:00;10.70;70.90
19567;DHT22;9930;49.240;8.548;2024-02-26T04:28:26;10.70;71.10
19567;DHT22;9930;49.240;8.548;2024-02-26T04:30:54;10.70;71.10
19567;DHT22;9930;49.240;8.548;2024-02-26T04:33:23;10.70;71.00
19567;DHT22;9930;49.240;8.548;2024-02-26T04:35:49;10.70;71.20
19567;DHT22;9930;49.240;8.548;2024-02-26T04:38:14;10.60;71.40
19567;DHT22;9930;49.240;8.548;2024-02-26T04:40:40;10.60;71.40
19567;DHT22;9930;49.240;8.548;2024-02-26T04:43:06;10.60;71.40
19567;DHT22;9930;49.240;8.548;2024-02-26T04:45:31;10.60;71.40
19567;DHT22;9930;49.240;8.548;2024-02-26T04:47:57;10.60;71.40
19567;DHT22;9930;49.240;8.548;2024-02-26T04:50:23;10.60;71.60
19567;DHT22;9930;49.240;8.548;2024-02-26T04:52:49;10.70;71.80
19567;DHT22;9930;49.240;8.548;2024-02-26T04:55:14;10.60;71.80
19567;DHT22;9930;49.240;8.548;2024-02-26T04:57:40;10.60;71.90
19567;DHT22;9930;49.240;8.548;2024-02-26T05:00:06;10.60;71.90
19567;DHT22;9930;49.240;8.548;2024-02-26T05:02:32;10.60;72.00
19567;DHT22;9930;49.240;8.548;2024-02-26T05:05:01;10.60;71.90
19567;DHT22;9930;49.240;8.548;2024-02-26T05:07:27;10.60;72.00
19567;DHT22;9930;49.240;8.548;2024-02-26T05:09:53;10.60;72.10
19567;DHT22;9930;49.240;8.548;2024-02-26T05:12:19;10.60;72.10
19567;DHT22;9930;49.240;8.548;2024-02-26T05:14:45;10.60;72.40
19567;DHT22;9930;49.240;8.548;2024-02-26T05:17:10;10.60;72.40
19567;DHT22;9930;49.240;8.548;2024-02-26T05:19:36;10.60;72.50
19567;DHT22;9930;49.240;8.548;2024-02-26T05:22:04;10.60;72.40
19567;DHT22;9930;49.240;8.548;2024-02-26T05:24:30;10.60;72.40
19567;DHT22;9930;49.240;8.548;2024-02-26T05:26:56;10.60;72.50
19567;DHT22;9930;49.240;8.548;2024-02-26T05:29:22;10.60;72.40
19567;DHT22;9930;49.240;8.548;2024-02-26T05:31:47;10.60;72.60
19567;DHT22;9930;49.240;8.548;2024-02-26T05:34:13;10.60;72.70
19567;DHT22;9930;49.240;8.548;2024-02-26T05:36:38;10.60;72.90
19567;DHT22;9930;49.240;8.548;2024-02-26T05:39:04;10.60;72.90
19567;DHT22;9930;49.240;8.548;2024-02-26T05:41:30;10.60;73.00
19567;DHT22;9930;49.240;8.548;2024-02-26T05:43:56;10.70;73.10
19567;DHT22;9930;49.240;8.548;2024-02-26T05:46:22;10.60;73.10
19567;DHT22;9930;49.240;8.548;2024-02-26T05:48:50;10.60;74.00
19567;DHT22;9930;49.240;8.548;2024-02-26T05:51:17;10.60;73.40
19567;DHT22;9930;49.240;8.548;2024-02-26T05:53:43;10.60;73.50
19567;DHT22;9930;49.240;8.548;2024-02-26T05:56:12;10.60;73.60
19567;DHT22;9930;49.240;8.548;2024-02-26T05:58:38;10.60;73.50
19567;DHT22;9930;49.240;8.548;2024-02-26T06:01:03;10.60;73.70
19567;DHT22;9930;49.240;8.548;2024-02-26T06:03:29;10.60;73.70
19567;DHT22;9930;49.240;8.548;2024-02-26T06:05:55;10.60;73.80
19567;DHT22;9930;49.240;8.548;2024-02-26T06:08:20;10.60;73.90
19567;DHT22;9930;49.240;8.548;2024-02-26T06:10:46;10.60;74.10
19567;DHT22;9930;49.240;8.548;2024-02-26T06:13:12;10.60;73.90
19567;DHT22;9930;49.240;8.548;2024-02-26T06:15:38;10.60;74.10
19567;DHT22;9930;49.240;8.548;2024-02-26T06:18:03;10.50;73.90
19567;DHT22;9930;49.240;8.548;2024-02-26T06:20:29;10.60;73.60
19567;DHT22;9930;49.240;8.548;2024-02-26T06:22:55;10.50;74.10
19567;DHT22;9930;49.240;8.548;2024-02-26T06:25:21;10.60;74.00
19567;DHT22;9930;49.240;8.548;2024-02-26T06:27:46;10.50;74.00
19567;DHT22;9930;49.240;8.548;2024-02-26T06:30:12;10.50;74.20
19567;DHT22;9930;49.240;8.548;2024-02-26T06:32:38;10.50;74.10
19567;DHT22;9930;49.240;8.548;2024-02-26T06:35:04;10.50;74.00
19567;DHT22;9930;49.240;8.548;2024-02-26T06:37:33;10.50;74.90
19567;DHT22;9930;49.240;8.548;2024-02-26T06:39:59;10.50;74.40
19567;DHT22;9930;49.240;8.548;2024-02-26T06:42:25;10.50;74.40
19567;DHT22;9930;49.240;8.548;2024-02-26T06:44:51;10.50;74.60
19567;DHT22;9930;49.240;8.548;2024-02-26T06:47:17;10.50;74.60
19567;DHT22;9930;49.240;8.548;2024-02-26T06:49:43;10.50;74.70
19567;DHT22;9930;49.240;8.548;2024-02-26T06:52:09;10.50;74.70
19567;DHT22;9930;49.240;8.548;2024-02-26T06:54:35;10.50;74.70
19567;DHT22;9930;49.240;8.548;2024-02-26T06:57:00;10.50;74.80
19567;DHT22;9930;49.240;8.548;2024-02-26T06:59:26;10.50;74.80
19567;DHT22;9930;49.240;8.548;2024-02-26T07:01:52;10.60;75.00
19567;DHT22;9930;49.240;8.548;2024-02-26T07:04:20;10.50;75.60
19567;DHT22;9930;49.240;8.548;2024-02-26T07:06:45;10.50;75.00
19567;DHT22;9930;49.240;8.548;2024-02-26T07:09:12;10.50;74.90
19567;DHT22;9930;49.240;8.548;2024-02-26T07:11:38;10.60;75.00
19567;DHT22;9930;49.240;8.548;2024-02-26T07:14:08;10.60;75.00
19567;DHT22;9930;49.240;8.548;2024-02-26T07:16:34;10.60;75.10
19567;DHT22;9930;49.240;8.548;2024-02-26T07:18:59;10.60;75.20
19567;DHT22;9930;49.240;8.548;2024-02-26T07:21:25;10.60;75.20
19567;DHT22;9930;49.240;8.548;2024-02-26T07:23:51;10.70;75.40
19567;DHT22;9930;49.240;8.548;2024-02-26T07:26:17;10.70;75.50
19567;DHT22;9930;49.240;8.548;2024-02-26T07:28:45;10.70;75.50
19567;DHT22;9930;49.240;8.548;2024-02-26T07:31:10;10.70;75.60
19567;DHT22;9930;49.240;8.548;2024-02-26T07:33:36;10.70;75.70
19567;DHT22;9930;49.240;8.548;2024-02-26T07:36:02;10.70;75.70
19567;DHT22;9930;49.240;8.548;2024-02-26T07:38:28;10.80;75.80
19567;DHT22;9930;49.240;8.548;2024-02-26T07:40:54;10.80;75.50
19567;DHT22;9930;49.240;8.548;2024-02-26T07:43:20;10.80;75.50
19567;DHT22;9930;49.240;8.548;2024-02-26T07:45:45;10.80;75.70
19567;DHT22;9930;49.240;8.548;2024-02-26T07:48:11;10.80;75.40
19567;DHT22;9930;49.240;8.548;2024-02-26T07:50:39;10.80;75.40
19567;DHT22;9930;49.240;8.548;2024-02-26T07:53:05;10.80;75.30
19567;DHT22;9930;49.240;8.548;2024-02-26T07:55:31;10.90;75.70
19567;DHT22;9930;49.240;8.548;2024-02-26T07:57:57;10.90;75.70
19567;DHT22;9930;49.240;8.548;2024-02-26T08:00:23;10.90;75.80
19567;DHT22;9930;49.240;8.548;2024-02-26T08:02:49;10.90;75.80
19567;DHT22;9930;49.240;8.548;2024-02-26T08:05:14;10.90;76.00
19567;DHT22;9930;49.240;8.548;2024-02-26T08:07:40;11.00;76.00
19567;DHT22;9930;49.240;8.548;2024-02-26T08:10:07;11.00;76.00
19567;DHT22;9930;49.240;8.548;2024-02-26T08:12:33;11.00;76.10
19567;DHT22;9930;49.240;8.548;2024-02-26T08:14:59;11.00;76.00
19567;DHT22;9930;49.240;8.548;2024-02-26T08:17:25;11.10;76.10
19567;DHT22;9930;49.240;8.548;2024-02-26T08:19:52;11.10;75.90
19567;DHT22;9930;49.240;8.548;2024-02-26T08:22:18;11.10;76.10
19567;DHT22;9930;49.240;8.548;2024-02-26T08:24:44;11.20;76.20
19567;DHT22;9930;49.240;8.548;2024-02-26T08:27:10;11.20;76.10
19567;DHT22;9930;49.240;8.548;2024-02-26T08:29:36;11.20;76.20
19567;DHT22;9930;49.240;8.548;2024-02-26T08:32:02;11.20;76.70
19567;DHT22;9930;49.240;8.548;2024-02-26T08:34:28;11.30;76.10
19567;DHT22;9930;49.240;8.548;2024-02-26T08:36:53;11.30;76.10
19567;DHT22;9930;49.240;8.548;2024-02-26T08:39:19;11.30;76.10
19567;DHT22;9930;49.240;8.548;2024-02-26T08:41:46;11.40;76.10
19567;DHT22;9930;49.240;8.548;2024-02-26T08:44:12;11.30;75.90
19567;DHT22;9930;49.240;8.548;2024-02-26T08:46:37;11.40;76.00
19567;DHT22;9930;49.240;8.548;2024-02-26T08:49:04;11.40;76.10
19567;DHT22;9930;49.240;8.548;2024-02-26T08:51:29;11.40;76.10
19567;DHT22;9930;49.240;8.548;2024-02-26T08:53:55;11.40;76.30
19567;DHT22;9930;49.240;8.548;2024-02-26T08:56:21;11.50;76.30
19567;DHT22;9930;49.240;8.548;2024-02-26T08:58:47;11.50;76.50
19567;DHT22;9930;49.240;8.548;2024-02-26T09:01:19;11.60;76.50
19567;DHT22;9930;49.240;8.548;2024-02-26T09:03:45;11.60;76.50
19567;DHT22;9930;49.240;8.548;2024-02-26T09:06:11;11.70;76.40
19567;DHT22;9930;49.240;8.548;2024-02-26T09:08:39;11.80;76.40
19567;DHT22;9930;49.240;8.548;2024-02-26T09:11:05;11.80;76.20
19567;DHT22;9930;49.240;8.548;2024-02-26T09:13:30;11.90;76.20
19567;DHT22;9930;49.240;8.548;2024-02-26T09:15:56;11.90;76.20
19567;DHT22;9930;49.240;8.548;2024-02-26T09:18:22;11.90;75.80
19567;DHT22;9930;49.240;8.548;2024-02-26T09:20:47;12.00;76.00
19567;DHT22;9930;49.240;8.548;2024-02-26T09:23:13;12.00;76.10
19567;DHT22;9930;49.240;8.548;2024-02-26T09:25:39;12.00;76.00
19567;DHT22;9930;49.240;8.548;2024-02-26T09:28:07;12.00;76.20
19567;DHT22;9930;49.240;8.548;2024-02-26T09:30:33;12.10;76.30
19567;DHT22;9930;49.240;8.548;2024-02-26T09:32:59;12.20;76.30
19567;DHT22;9930;49.240;8.548;2024-02-26T09:35:24;12.20;76.20
19567;DHT22;9930;49.240;8.548;2024-02-26T09:37:51;12.20;76.20
19567;DHT22;9930;49.240;8.548;2024-02-26T09:40:17;12.30;76.10
19567;DHT22;9930;49.240;8.548;2024-02-26T09:42:44;12.30;75.90
19567;DHT22;9930;49.240;8.548;2024-02-26T09:45:22;12.30;75.80
19567;DHT22;9930;49.240;8.548;2024-02-26T09:47:50;12.30;76.10
19567;DHT22;9930;49.240;8.548;2024-02-26T09:50:17;12.40;76.00
19567;DHT22;9930;49.240;8.548;2024-02-26T09:52:43;12.40;76.10
19567;DHT22;9930;49.240;8.548;2024-02-26T09:55:09;12.50;76.10
19567;DHT22;9930;49.240;8.548;2024-02-26T09:57:44;12.50;76.00
19567;DHT22;9930;49.240;8.548;2024-02-26T10:00:17;12.60;76.20
19567;DHT22;9930;49.240;8.548;2024-02-26T10:02:47;12.60;76.30
19567;DHT22;9930;49.240;8.548;2024-02-26T10:05:16;12.70;76.40
19567;DHT22;9930;49.240;8.548;2024-02-26T10:07:44;12.80;76.30
19567;DHT22;9930;49.240;8.548;2024-02-26T10:10:11;12.90;76.00
19567;DHT22;9930;49.240;8.548;2024-02-26T10:12:37;13.00;75.60
19567;DHT22;9930;49.240;8.548;2024-02-26T10:15:03;13.00;75.10
19567;DHT22;9930;49.240;8.548;2024-02-26T10:17:29;13.10;75.00
19567;DHT22;9930;49.240;8.548;2024-02-26T10:20:13;13.10;74.80
19567;DHT22;9930;49.240;8.548;2024-02-26T10:22:46;13.00;74.80
19567;DHT22;9930;49.240;8.548;2024-02-26T10:25:11;13.10;74.70
19567;DHT22;9930;49.240;8.548;2024-02-26T10:27:37;13.10;74.60
19567;DHT22;9930;49.240;8.548;2024-02-26T10:30:17;13.10;74.50
19567;DHT22;9930;49.240;8.548;2024-02-26T10:32:45;13.10;74.50
19567;DHT22;9930;49.240;8.548;2024-02-26T10:35:15;13.10;74.50
19567;DHT22;9930;49.240;8.548;2024-02-26T10:37:43;13.20;74.40
19567;DHT22;9930;49.240;8.548;2024-02-26T10:40:13;13.20;74.40
19567;DHT22;9930;49.240;8.548;2024-02-26T10:42:40;13.20;74.40
19567;DHT22;9930;49.240;8.548;2024-02-26T10:45:08;13.20;74.30
19567;DHT22;9930;49.240;8.548;2024-02-26T10:47:36;13.30;74.30
19567;DHT22;9930;49.240;8.548;2024-02-26T10:50:03;13.30;74.40
19567;DHT22;9930;49.240;8.548;2024-02-26T10:52:35;13.30;74.30
19567;DHT22;9930;49.240;8.548;2024-02-26T10:55:03;13.40;74.40
19567;DHT22;9930;49.240;8.548;2024-02-26T10:57:51;13.50;74.40
19567;DHT22;9930;49.240;8.548;2024-02-26T11:00:18;13.50;74.30
19567;DHT22;9930;49.240;8.548;2024-02-26T11:02:45;13.60;74.40
19567;DHT22;9930;49.240;8.548;2024-02-26T11:05:12;13.60;74.20
19567;DHT22;9930;49.240;8.548;2024-02-26T11:07:41;13.70;74.10
19567;DHT22;9930;49.240;8.548;2024-02-26T11:10:09;13.80;74.00
19567;DHT22;9930;49.240;8.548;2024-02-26T11:12:39;13.80;73.90
19567;DHT22;9930;49.240;8.548;2024-02-26T11:15:05;13.90;73.90
19567;DHT22;9930;49.240;8.548;2024-02-26T11:17:33;13.90;74.00
19567;DHT22;9930;49.240;8.548;2024-02-26T11:20:00;14.00;74.20
19567;DHT22;9930;49.240;8.548;2024-02-26T11:22:28;14.10;74.40
19567;DHT22;9930;49.240;8.548;2024-02-26T11:24:55;14.20;74.30
19567;DHT22;9930;49.240;8.548;2024-02-26T11:27:32;14.30;74.10
19567;DHT22;9930;49.240;8.548;2024-02-26T11:30:05;14.30;73.90
19567;DHT22;9930;49.240;8.548;2024-02-26T11:32:35;14.40;73.70
19567;DHT22;9930;49.240;8.548;2024-02-26T11:35:04;14.50;73.50
19567;DHT22;9930;49.240;8.548;2024-02-26T11:37:32;14.50;73.30
19567;DHT22;9930;49.240;8.548;2024-02-26T11:40:01;14.60;73.20
19567;DHT22;9930;49.240;8.548;2024-02-26T11:42:27;14.60;72.90
19567;DHT22;9930;49.240;8.548;2024-02-26T11:44:55;14.70;72.80
19567;DHT22;9930;49.240;8.548;2024-02-26T11:47:27;14.80;72.80
19567;DHT22;9930;49.240;8.548;2024-02-26T11:49:53;14.80;72.80
19567;DHT22;9930;49.240;8.548;2024-02-26T11:52:19;14.90;72.90
19567;DHT22;9930;49.240;8.548;2024-02-26T12:00:12;15.10;72.10
19567;DHT22;9930;49.240;8.548;2024-02-26T12:08:04;15.30;71.80
19567;DHT22;9930;49.240;8.548;2024-02-26T12:10:40;15.30;71.20
19567;DHT22;9930;49.240;8.548;2024-02-26T12:13:13;15.40;71.60
19567;DHT22;9930;49.240;8.548;2024-02-26T12:15:41;15.50;71.60
19567;DHT22;9930;49.240;8.548;2024-02-26T12:18:17;15.50;71.70
19567;DHT22;9930;49.240;8.548;2024-02-26T12:20:43;15.60;71.20
19567;DHT22;9930;49.240;8.548;2024-02-26T12:23:16;15.70;71.20
19567;DHT22;9930;49.240;8.548;2024-02-26T12:25:45;15.80;71.00
19567;DHT22;9930;49.240;8.548;2024-02-26T12:28:14;15.80;70.80
19567;DHT22;9930;49.240;8.548;2024-02-26T12:30:40;15.80;70.70
19567;DHT22;9930;49.240;8.548;2024-02-26T12:33:06;15.90;70.50
19567;DHT22;9930;49.240;8.548;2024-02-26T12:35:34;16.00;70.40
19567;DHT22;9930;49.240;8.548;2024-02-26T12:38:01;16.00;70.40
19567;DHT22;9930;49.240;8.548;2024-02-26T12:40:29;16.10;70.30
19567;DHT22;9930;49.240;8.548;2024-02-26T12:42:55;16.10;70.00
19567;DHT22;9930;49.240;8.548;2024-02-26T12:45:21;16.20;69.50
19567;DHT22;9930;49.240;8.548;2024-02-26T12:47:47;16.20;69.10
19567;DHT22;9930;49.240;8.548;2024-02-26T12:50:13;16.20;69.00
19567;DHT22;9930;49.240;8.548;2024-02-26T12:52:43;16.20;68.90
19567;DHT22;9930;49.240;8.548;2024-02-26T12:55:14;16.20;68.70
19567;DHT22;9930;49.240;8.548;2024-02-26T12:57:42;16.20;68.40
19567;DHT22;9930;49.240;8.548;2024-02-26T13:00:12;16.20;68.60
19567;DHT22;9930;49.240;8.548;2024-02-26T13:02:41;16.20;68.60
19567;DHT22;9930;49.240;8.548;2024-02-26T13:05:12;16.20;68.40
19567;DHT22;9930;49.240;8.548;2024-02-26T13:07:43;16.20;68.10
19567;DHT22;9930;49.240;8.548;2024-02-26T13:10:10;16.10;67.60
19567;DHT22;9930;49.240;8.548;2024-02-26T13:12:47;16.10;67.40
19567;DHT22;9930;49.240;8.548;2024-02-26T13:15:17;16.10;67.30
19567;DHT22;9930;49.240;8.548;2024-02-26T13:17:44;16.00;67.40
19567;DHT22;9930;49.240;8.548;2024-02-26T13:20:11;16.00;67.60
19567;DHT22;9930;49.240;8.548;2024-02-26T13:22:38;16.00;67.80
19567;DHT22;9930;49.240;8.548;2024-02-26T13:25:04;16.00;68.00
19567;DHT22;9930;49.240;8.548;2024-02-26T13:27:33;16.00;68.00
19567;DHT22;9930;49.240;8.548;2024-02-26T13:32:37;16.00;67.70
19567;DHT22;9930;49.240;8.548;2024-02-26T13:35:11;16.10;67.70
19567;DHT22;9930;49.240;8.548;2024-02-26T13:37:38;16.10;67.40
19567;DHT22;9930;49.240;8.548;2024-02-26T13:42:32;16.20;67.50
19567;DHT22;9930;49.240;8.548;2024-02-26T13:44:58;16.20;67.50
19567;DHT22;9930;49.240;8.548;2024-02-26T13:47:24;16.20;67.30
19567;DHT22;9930;49.240;8.548;2024-02-26T13:49:50;16.20;67.10
19567;DHT22;9930;49.240;8.548;2024-02-26T13:52:16;16.20;66.90
19567;DHT22;9930;49.240;8.548;2024-02-26T13:54:41;16.10;66.60
19567;DHT22;9930;49.240;8.548;2024-02-26T13:57:07;16.10;66.50
19567;DHT22;9930;49.240;8.548;2024-02-26T13:59:34;16.10;66.40
19567;DHT22;9930;49.240;8.548;2024-02-26T14:01:59;16.00;66.30
19567;DHT22;9930;49.240;8.548;2024-02-26T14:04:25;16.00;66.40
19567;DHT22;9930;49.240;8.548;2024-02-26T14:06:51;16.00;66.50
19567;DHT22;9930;49.240;8.548;2024-02-26T14:09:17;16.00;66.60
19567;DHT22;9930;49.240;8.548;2024-02-26T14:11:45;16.00;66.60
19567;DHT22;9930;49.240;8.548;2024-02-26T14:14:11;16.10;66.90
19567;DHT22;9930;49.240;8.548;2024-02-26T14:16:36;16.10;66.60
19567;DHT22;9930;49.240;8.548;2024-02-26T14:19:02;16.20;66.60
19567;DHT22;9930;49.240;8.548;2024-02-26T14:21:28;16.20;66.50
19567;DHT22;9930;49.240;8.548;2024-02-26T14:23:57;16.20;66.30
19567;DHT22;9930;49.240;8.548;2024-02-26T14:26:23;16.30;66.10
19567;DHT22;9930;49.240;8.548;2024-02-26T14:28:49;16.30;65.80
19567;DHT22;9930;49.240;8.548;2024-02-26T14:31:21;16.30;65.70
19567;DHT22;9930;49.240;8.548;2024-02-26T14:33:47;16.30;65.10
19567;DHT22;9930;49.240;8.548;2024-02-26T14:36:13;16.40;65.10
19567;DHT22;9930;49.240;8.548;2024-02-26T14:38:40;16.40;65.00
19567;DHT22;9930;49.240;8.548;2024-02-26T14:41:05;16.40;64.90
19567;DHT22;9930;49.240;8.548;2024-02-26T14:43:31;16.40;64.80
19567;DHT22;9930;49.240;8.548;2024-02-26T14:45:58;16.40;64.60
19567;DHT22;9930;49.240;8.548;2024-02-26T14:48:24;16.30;64.70
19567;DHT22;9930;49.240;8.548;2024-02-26T14:50:50;16.30;64.70
19567;DHT22;9930;49.240;8.548;2024-02-26T14:53:17;16.30;64.80
19567;DHT22;9930;49.240;8.548;2024-02-26T14:55:43;16.30;64.80
19567;DHT22;9930;49.240;8.548;2024-02-26T14:58:09;16.30;64.80
19567;DHT22;9930;49.240;8.548;2024-02-26T15:00:36;16.30;64.80
19567;DHT22;9930;49.240;8.548;2024-02-26T15:03:03;16.30;65.00
19567;DHT22;9930;49.240;8.548;2024-02-26T15:05:29;16.30;65.00
19567;DHT22;9930;49.240;8.548;2024-02-26T15:07:55;16.20;65.00
19567;DHT22;9930;49.240;8.548;2024-02-26T15:10:21;16.20;64.80
19567;DHT22;9930;49.240;8.548;2024-02-26T15:12:46;16.20;64.80
19567;DHT22;9930;49.240;8.548;2024-02-26T15:15:13;16.20;64.70
19567;DHT22;9930;49.240;8.548;2024-02-26T15:17:38;16.20;64.70
19567;DHT22;9930;49.240;8.548;2024-02-26T15:20:05;16.20;64.70
19567;DHT22;9930;49.240;8.548;2024-02-26T15:22:33;16.20;64.70
19567;DHT22;9930;49.240;8.548;2024-02-26T15:24:59;16.10;64.80
19567;DHT22;9930;49.240;8.548;2024-02-26T15:27:25;16.20;64.90
19567;DHT22;9930;49.240;8.548;2024-02-26T15:29:51;16.20;65.00
19567;DHT22;9930;49.240;8.548;2024-02-26T15:32:23;16.20;64.90
19567;DHT22;9930;49.240;8.548;2024-02-26T15:34:53;16.20;64.60
19567;DHT22;9930;49.240;8.548;2024-02-26T15:37:19;16.20;64.60
19567;DHT22;9930;49.240;8.548;2024-02-26T15:39:45;16.20;64.60
19567;DHT22;9930;49.240;8.548;2024-02-26T15:42:12;16.20;64.60
19567;DHT22;9930;49.240;8.548;2024-02-26T15:44:38;16.30;64.60
19567;DHT22;9930;49.240;8.548;2024-02-26T15:47:04;16.20;64.30
19567;DHT22;9930;49.240;8.548;2024-02-26T15:49:31;16.30;64.10
19567;DHT22;9930;49.240;8.548;2024-02-26T15:51:57;16.30;64.30
19567;DHT22;9930;49.240;8.548;2024-02-26T15:54:23;16.30;64.30
19567;DHT22;9930;49.240;8.548;2024-02-26T15:56:50;16.30;64.10